Time;durP1;ratioP1;P1;durP2;ratioP2;P2;SDS_P1;SDS_P2;PMS_P1;PMS_P2;Temp;Humidity;BMP_temperature;BMP_pressure;BME280_temperature;BME280_humidity;BME280_pressure;Samples;Min_cycle;Max_cycle;Signal;HPM_P1;HPM_P2
2022/05/22 01:35:39;;;;;;;;;;;;;;;13.80;73.60;100041.63;1088390;54;19947;-81
2022/05/22 01:36:41;;;;;;;;;;;;;;;13.82;73.22;100039.63;1088653;54;19986;-80
2022/05/22 01:37:45;;;;;;;;;;;;;;;13.80;73.02;100035.44;1088586;54;19935;-80
2022/05/22 01:38:47;;;;;;;;;;;;;;;13.86;72.85;100040.97;1088599;54;19926;-82
2022/05/22 01:39:52;;;;;;;;;;;;;;;13.87;72.74;100037.28;1088664;54;19935;-80
2022/05/22 01:40:53;;;;;;;;;;;;;;;13.87;72.56;100037.28;1088665;54;19948;-81
2022/05/22 01:41:57;;;;;;;;;;;;;;;13.88;72.72;100036.28;1088628;54;19927;-80
2022/05/22 01:42:58;;;;;;;;;;;;;;;13.85;72.63;100043.81;1088405;54;19926;-80
2022/05/22 01:44:02;;;;;;;;;;;;;;;13.79;72.89;100044.50;1088400;54;20586;-79
2022/05/22 01:45:06;;;;;;;;;;;;;;;13.75;73.00;100046.66;1088595;54;19942;-79
2022/05/22 01:46:10;;;;;;;;;;;;;;;13.76;73.18;100045.66;1088586;54;19943;-80
2022/05/22 01:47:17;;;;;;;;;;;;;;;13.73;73.31;100043.31;1088556;54;19931;-79
2022/05/22 01:48:21;;;;;;;;;;;;;;;13.69;73.17;100050.03;1088465;54;19934;-80
2022/05/22 01:49:22;;;;;;;;;;;;;;;13.67;73.25;100046.66;1090648;39;20559;-80
2022/05/22 01:50:26;;;;;;;;;;;;;;;13.69;73.04;100044.66;1088581;54;19990;-79
2022/05/22 01:51:33;;;;;;;;;;;;;;;13.72;72.90;100052.38;1088606;54;19949;-79
2022/05/22 01:52:37;;;;;;;;;;;;;;;13.62;73.22;100057.91;1088518;54;20708;-81
2022/05/22 01:53:39;;;;;;;;;;;;;;;13.59;73.74;100057.41;1088611;54;20549;-80
2022/05/22 01:54:43;;;;;;;;;;;;;;;13.50;73.86;100056.53;1088535;54;19934;-79
2022/05/22 01:55:45;;;;;;;;;;;;;;;13.47;74.27;100052.31;1088280;54;19923;-81
2022/05/22 01:56:48;;;;;;;;;;;;;;;13.45;74.32;100051.63;1088244;54;19945;-79
2022/05/22 01:57:50;;;;;;;;;;;;;;;13.44;74.46;100047.28;1088177;54;19965;-80
2022/05/22 01:58:53;;;;;;;;;;;;;;;13.43;74.42;100050.13;1088256;54;19943;-79
2022/05/22 01:59:55;;;;;;;;;;;;;;;13.47;74.24;100046.09;1088295;54;19950;-79
2022/05/22 02:00:59;;;;;;;;;;;;;;;13.60;73.64;100048.34;1088239;54;19949;-79
2022/05/22 02:02:00;;;;;;;;;;;;;;;13.48;74.15;100042.41;1088342;54;19966;-79
2022/05/22 02:03:04;;;;;;;;;;;;;;;13.40;74.01;100037.88;1099246;39;20510;-79
2022/05/22 02:04:06;;;;;;;;;;;;;;;13.41;74.17;100039.56;1093234;39;20534;-79
2022/05/22 02:05:10;;;;;;;;;;;;;;;13.39;74.11;100033.50;1088281;54;19935;-80
2022/05/22 02:06:11;;;;;;;;;;;;;;;13.35;74.11;100029.41;1088581;54;19949;-80
2022/05/22 02:08:41;;;;;;;;;;;;;;;13.31;74.17;100028.09;1090490;39;20510;-80
2022/05/22 02:09:42;;;;;;;;;;;;;;;13.35;73.85;100032.97;1088538;54;20003;-80
2022/05/22 02:10:44;;;;;;;;;;;;;;;13.39;73.52;100033.50;1088979;39;20581;-79
2022/05/22 02:11:47;;;;;;;;;;;;;;;13.46;73.18;100039.91;1088547;54;20717;-80
2022/05/22 02:12:49;;;;;;;;;;;;;;;13.44;73.20;100027.66;1088487;54;19927;-79
2022/05/22 02:13:52;;;;;;;;;;;;;;;13.41;73.16;100031.50;1088443;54;19943;-79
2022/05/22 02:14:53;;;;;;;;;;;;;;;13.42;73.24;100022.41;1088594;54;20642;-81
2022/05/22 02:15:57;;;;;;;;;;;;;;;13.38;72.97;100021.88;1088492;54;20785;-79
2022/05/22 02:16:58;;;;;;;;;;;;;;;13.37;73.29;100019.38;1088435;54;20615;-80
2022/05/22 02:18:02;;;;;;;;;;;;;;;13.32;73.29;100019.03;1088459;54;19987;-79
2022/05/22 02:19:07;;;;;;;;;;;;;;;13.32;73.36;100017.16;1088538;47;19934;-79
2022/05/22 02:20:09;;;;;;;;;;;;;;;13.33;73.50;100010.81;1088487;54;19934;-80
2022/05/22 02:21:13;;;;;;;;;;;;;;;13.36;73.02;100012.31;1088276;54;20535;-79
2022/05/22 02:22:16;;;;;;;;;;;;;;;13.27;73.72;100014.16;1088458;54;19926;-80
2022/05/22 02:23:21;;;;;;;;;;;;;;;13.25;74.09;100016.97;1088579;54;19931;-80
2022/05/22 02:24:22;;;;;;;;;;;;;;;13.31;73.79;100023.53;1088448;54;19943;-79
2022/05/22 02:25:28;;;;;;;;;;;;;;;13.29;73.90;100022.03;1088535;54;19935;-80
2022/05/22 02:26:30;;;;;;;;;;;;;;;13.28;73.88;100026.53;1088548;54;19950;-80
2022/05/22 02:27:34;;;;;;;;;;;;;;;13.25;74.02;100022.34;1088467;54;19990;-80
2022/05/22 02:28:38;;;;;;;;;;;;;;;13.26;74.24;100024.03;1088478;54;19931;-80
2022/05/22 02:29:39;;;;;;;;;;;;;;;13.25;74.18;100016.16;1089243;46;19939;-80
2022/05/22 02:30:45;;;;;;;;;;;;;;;13.25;74.40;100014.28;1088508;54;19938;-80
2022/05/22 02:31:46;;;;;;;;;;;;;;;13.30;74.06;100019.16;1092569;39;20403;-80
2022/05/22 02:32:50;;;;;;;;;;;;;;;13.31;73.95;100020.03;1088418;54;19945;-81
2022/05/22 02:33:51;;;;;;;;;;;;;;;13.34;73.97;100007.13;1088503;54;19987;-80
2022/05/22 02:34:54;;;;;;;;;;;;;;;13.33;73.77;100002.75;1088512;54;19969;-80
2022/05/22 02:35:56;;;;;;;;;;;;;;;13.30;74.26;100007.59;1088638;47;19934;-80
2022/05/22 02:37:00;;;;;;;;;;;;;;;13.25;74.86;100008.94;1091847;39;20708;-80
2022/05/22 02:38:04;;;;;;;;;;;;;;;13.20;74.93;100015.78;1088217;54;19949;-80
2022/05/22 02:39:08;;;;;;;;;;;;;;;13.18;75.29;100012.41;1088517;54;19943;-80
2022/05/22 02:40:10;;;;;;;;;;;;;;;13.16;75.37;100007.22;1088520;54;19930;-80
2022/05/22 02:41:15;;;;;;;;;;;;;;;13.14;75.50;100006.53;1089924;39;20579;-80
2022/05/22 02:42:17;;;;;;;;;;;;;;;13.14;75.82;100005.72;1088532;54;19945;-81
2022/05/22 02:43:21;;;;;;;;;;;;;;;13.16;75.38;100001.03;1088467;54;19938;-80
2022/05/22 02:44:22;;;;;;;;;;;;;;;13.13;75.92;100002.16;1088507;54;19931;-80
2022/05/22 02:45:28;;;;;;;;;;;;;;;13.11;76.03;99998.81;1088444;54;19927;-80
2022/05/22 02:46:32;;;;;;;;;;;;;;;13.08;76.23;100004.50;1088525;54;19939;-81
2022/05/22 02:47:34;;;;;;;;;;;;;;;13.09;76.00;100007.03;1090708;47;19954;-80
2022/05/22 02:48:37;;;;;;;;;;;;;;;13.08;76.18;100010.69;1088413;54;19931;-80
2022/05/22 02:49:39;;;;;;;;;;;;;;;13.08;76.23;100009.88;1088507;54;19942;-81
2022/05/22 02:50:43;;;;;;;;;;;;;;;13.07;76.58;100010.88;1088477;54;19941;-80
2022/05/22 02:51:44;;;;;;;;;;;;;;;13.02;76.45;100011.34;1088477;54;20780;-80
2022/05/22 02:52:48;;;;;;;;;;;;;;;12.98;76.63;100009.16;1088446;54;20030;-80
2022/05/22 02:53:54;;;;;;;;;;;;;;;12.94;76.71;100009.47;1088319;54;19943;-79
2022/05/22 02:54:56;;;;;;;;;;;;;;;12.92;76.87;100013.31;1088292;54;19922;-80
2022/05/22 02:56:08;;;;;;;;;;;;;;;12.94;76.90;100009.47;1088413;54;20562;-79
2022/05/22 02:57:09;;;;;;;;;;;;;;;12.99;76.69;100000.94;1100291;39;20555;-80
2022/05/22 02:58:14;;;;;;;;;;;;;;;12.98;76.58;99998.44;1088417;54;19931;-80
2022/05/22 02:59:15;;;;;;;;;;;;;;;12.90;77.25;100000.09;1088417;54;19938;-80
2022/05/22 03:00:23;;;;;;;;;;;;;;;12.90;77.65;100002.78;1088434;54;19927;-79
2022/05/22 03:01:25;;;;;;;;;;;;;;;12.89;77.61;100000.25;1088498;54;20633;-80
2022/05/22 03:02:29;;;;;;;;;;;;;;;12.88;77.48;99993.22;1088443;54;19950;-80
2022/05/22 03:03:33;;;;;;;;;;;;;;;12.88;77.20;99999.41;1088504;54;19923;-80
2022/05/22 03:04:47;;;;;;;;;;;;;;;12.85;77.37;99986.28;1088477;54;19950;-80
2022/05/22 03:07:07;;;;;;;;;;;;;;;12.78;77.09;99988.81;1088462;54;20798;-80
2022/05/22 03:08:21;;;;;;;;;;;;;;;12.75;76.99;99985.59;1093355;47;19927;-81
2022/05/22 03:09:27;;;;;;;;;;;;;;;12.69;76.40;99978.19;1088608;54;19978;-80
2022/05/22 03:10:28;;;;;;;;;;;;;;;12.70;76.59;99982.53;1089877;47;19927;-80
2022/05/22 03:12:57;;;;;;;;;;;;;;;12.68;76.58;99981.88;1090434;47;19975;-81
2022/05/22 03:15:38;;;;;;;;;;;;;;;12.70;76.38;99971.81;1088823;54;19950;-81
2022/05/22 03:16:39;;;;;;;;;;;;;;;12.73;75.92;99969.66;1088891;54;19923;-81
2022/05/22 03:17:58;;;;;;;;;;;;;;;12.73;76.21;99964.28;1088860;54;19979;-79
2022/05/22 03:18:59;;;;;;;;;;;;;;;12.65;76.30;99972.31;1088827;54;19933;-80
2022/05/22 03:20:06;;;;;;;;;;;;;;;12.61;75.77;99970.97;1088806;54;19938;-79
2022/05/22 03:21:07;;;;;;;;;;;;;;;12.59;75.77;99981.00;1088736;54;19951;-80
2022/05/22 03:22:21;;;;;;;;;;;;;;;12.64;75.33;99978.66;1091194;46;19938;-79
2022/05/22 03:23:22;;;;;;;;;;;;;;;12.62;75.67;99980.66;1088877;54;19923;-79
2022/05/22 03:24:31;;;;;;;;;;;;;;;12.57;75.65;99975.78;1088853;54;19938;-80
2022/05/22 03:25:32;;;;;;;;;;;;;;;12.58;75.43;99976.63;1088470;54;19949;-80
2022/05/22 03:26:37;;;;;;;;;;;;;;;12.55;75.78;99975.13;1088468;54;19943;-81
2022/05/22 03:27:38;;;;;;;;;;;;;;;12.54;75.62;99975.25;1088516;54;19943;-80
2022/05/22 03:28:42;;;;;;;;;;;;;;;12.52;75.82;99964.69;1088520;54;19995;-80
2022/05/22 03:29:45;;;;;;;;;;;;;;;12.58;75.64;99965.91;1088492;54;19927;-80
2022/05/22 03:30:49;;;;;;;;;;;;;;;12.58;75.71;99965.91;1088475;54;19927;-81
2022/05/22 03:31:51;;;;;;;;;;;;;;;12.54;75.98;99960.03;1088447;54;19933;-80
2022/05/22 03:32:55;;;;;;;;;;;;;;;12.58;75.90;99966.72;1088527;54;20630;-81
2022/05/22 03:33:56;;;;;;;;;;;;;;;12.56;75.87;99962.53;1088467;54;19950;-79
2022/05/22 03:35:00;;;;;;;;;;;;;;;12.57;75.60;99959.69;1088726;54;19974;-80
2022/05/22 03:36:01;;;;;;;;;;;;;;;12.58;76.10;99961.38;1089835;46;19951;-81
2022/05/22 03:37:06;;;;;;;;;;;;;;;12.59;76.00;99963.06;1088136;54;19950;-82
2022/05/22 03:38:07;;;;;;;;;;;;;;;12.57;76.05;99959.69;1088728;54;19926;-80
2022/05/22 03:39:11;;;;;;;;;;;;;;;12.58;76.23;99956.00;1088800;54;19950;-81
2022/05/22 03:40:15;;;;;;;;;;;;;;;12.58;76.11;99961.38;1088737;54;19966;-80
2022/05/22 03:41:20;;;;;;;;;;;;;;;12.61;76.05;99960.22;1091890;46;19950;-81
2022/05/22 03:42:21;;;;;;;;;;;;;;;12.61;75.78;99960.22;1088722;54;19927;-81
2022/05/22 03:43:25;;;;;;;;;;;;;;;12.59;75.96;99963.06;1088741;54;19942;-80
2022/05/22 03:44:27;;;;;;;;;;;;;;;12.62;75.83;99956.53;1088827;54;19979;-80
2022/05/22 03:45:30;;;;;;;;;;;;;;;12.64;75.53;99960.75;1088612;54;19927;-80
2022/05/22 03:46:32;;;;;;;;;;;;;;;12.64;75.52;99963.44;1088792;54;19926;-81
2022/05/22 03:47:36;;;;;;;;;;;;;;;12.71;75.23;99970.81;1088741;54;19962;-81
2022/05/22 03:48:37;;;;;;;;;;;;;;;12.78;74.74;99969.16;1094364;39;20597;-81
2022/05/22 03:49:41;;;;;;;;;;;;;;;12.84;74.51;99978.41;1088719;54;19926;-80
2022/05/22 03:50:42;;;;;;;;;;;;;;;12.88;73.95;99969.88;1088813;54;19934;-81
2022/05/22 03:51:45;;;;;;;;;;;;;;;12.98;73.77;99975.13;1088748;54;20713;-79
2022/05/22 03:52:47;;;;;;;;;;;;;;;13.04;73.42;99977.16;1096399;39;20565;-81
2022/05/22 03:53:50;;;;;;;;;;;;;;;13.10;73.36;99973.81;1088706;54;19935;-80
2022/05/22 03:54:52;;;;;;;;;;;;;;;13.17;73.31;99963.28;1088711;54;19934;-79
2022/05/22 03:55:58;;;;;;;;;;;;;;;13.22;72.93;99971.69;1088574;54;19938;-79
2022/05/22 03:57:02;;;;;;;;;;;;;;;13.29;73.14;99965.66;1088500;54;19943;-81
2022/05/22 03:58:03;;;;;;;;;;;;;;;13.36;72.81;99958.63;1088713;54;19954;-81
2022/05/22 03:59:07;;;;;;;;;;;;;;;13.40;72.60;99954.63;1088754;54;19966;-81
2022/05/22 04:00:10;;;;;;;;;;;;;;;13.42;72.52;99960.66;1095838;39;20558;-82
2022/05/22 04:01:14;;;;;;;;;;;;;;;13.44;72.82;99955.97;1097871;39;20381;-82
2022/05/22 04:02:19;;;;;;;;;;;;;;;13.46;72.59;99958.50;1088661;54;20606;-80
2022/05/22 04:03:20;;;;;;;;;;;;;;;13.45;72.42;99952.28;1088654;54;20543;-80
2022/05/22 04:04:24;;;;;;;;;;;;;;;13.43;72.71;99958.84;1093717;39;20498;-80
2022/05/22 04:05:32;;;;;;;;;;;;;;;13.44;73.02;99961.34;1092328;39;20489;-79
2022/05/22 04:06:35;;;;;;;;;;;;;;;13.46;72.59;99964.72;1088776;54;19919;-80
2022/05/22 04:07:37;;;;;;;;;;;;;;;13.41;72.86;99967.06;1088549;54;19943;-79
2022/05/22 04:08:41;;;;;;;;;;;;;;;13.35;73.27;99965.84;1088176;54;19943;-78
2022/05/22 04:09:42;;;;;;;;;;;;;;;13.40;72.97;99966.22;1088109;54;20002;-79
2022/05/22 04:10:46;;;;;;;;;;;;;;;13.40;73.11;99973.44;1088110;54;19949;-79
2022/05/22 04:11:50;;;;;;;;;;;;;;;13.40;73.11;99970.75;1088620;54;20586;-80
2022/05/22 04:12:53;;;;;;;;;;;;;;;13.43;72.92;99959.66;1088449;54;19950;-80
2022/05/22 04:13:55;;;;;;;;;;;;;;;13.45;72.79;99971.09;1088319;54;19958;-80
2022/05/22 04:14:59;;;;;;;;;;;;;;;13.47;72.91;99966.38;1089701;39;20421;-81
2022/05/22 04:16:00;;;;;;;;;;;;;;;13.48;72.57;99956.47;1088572;54;19927;-80
2022/05/22 04:17:04;;;;;;;;;;;;;;;13.48;72.88;99960.03;1095171;39;20463;-79
2022/05/22 04:18:09;;;;;;;;;;;;;;;13.51;72.61;99951.59;1090066;39;20341;-81
2022/05/22 04:19:11;;;;;;;;;;;;;;;13.53;72.42;99960.34;1100034;39;20475;-80
2022/05/22 04:20:31;;;;;;;;;;;;;;;13.55;72.68;99954.81;1088698;54;19943;-82
2022/05/22 04:21:33;;;;;;;;;;;;;;;13.57;72.35;99956.34;1088746;54;19934;-81
2022/05/22 04:25:11;;;;;;;;;;;;;;;13.61;72.31;99950.59;1088250;54;19943;-79
2022/05/22 04:25:23;;;;;;;;;;;;;;;13.66;71.76;99957.16;1088309;54;19925;-79
2022/05/22 04:26:28;;;;;;;;;;;;;;;13.66;72.10;99956.34;1088468;46;19938;-79
2022/05/22 04:27:34;;;;;;;;;;;;;;;13.64;71.75;99953.84;1087794;54;19946;-79
2022/05/22 04:28:35;;;;;;;;;;;;;;;13.66;71.53;99959.03;1087619;54;19934;-78
2022/05/22 04:29:41;;;;;;;;;;;;;;;13.62;71.83;99953.16;1089968;39;20336;-79
2022/05/22 04:30:45;;;;;;;;;;;;;;;13.59;71.83;99960.69;1088086;54;19943;-80
2022/05/22 04:31:47;;;;;;;;;;;;;;;13.56;71.81;99962.72;1088100;54;19930;-80
2022/05/22 04:32:52;;;;;;;;;;;;;;;13.57;71.84;99953.66;1088391;54;19982;-80
2022/05/22 04:33:54;;;;;;;;;;;;;;;13.57;72.06;99958.16;1092099;39;20400;-80
2022/05/22 04:34:58;;;;;;;;;;;;;;;13.57;71.85;99948.28;1088506;54;19958;-79
2022/05/22 04:35:59;;;;;;;;;;;;;;;13.56;71.79;99965.41;1088432;54;19927;-80
2022/05/22 04:37:03;;;;;;;;;;;;;;;13.62;71.96;99954.97;1088711;54;19942;-80
2022/05/22 04:38:04;;;;;;;;;;;;;;;13.63;71.61;99960.19;1088257;54;19939;-81
2022/05/22 04:39:10;;;;;;;;;;;;;;;13.67;71.85;99955.34;1088176;54;19954;-79
2022/05/22 04:40:12;;;;;;;;;;;;;;;13.72;71.55;99958.34;1088188;54;19947;-80
2022/05/22 04:41:17;;;;;;;;;;;;;;;13.71;71.54;99962.03;1090379;39;20436;-80
2022/05/22 04:42:18;;;;;;;;;;;;;;;13.73;71.44;99965.41;1088719;54;19979;-80
2022/05/22 04:43:33;;;;;;;;;;;;;;;13.76;71.45;99950.78;1088535;54;20418;-81
2022/05/22 04:44:56;;;;;;;;;;;;;;;13.75;71.15;99954.47;1088705;54;19930;-81
2022/05/22 04:46:01;;;;;;;;;;;;;;;13.80;71.34;99952.97;1088396;54;19962;-81
2022/05/22 04:47:17;;;;;;;;;;;;;;;13.84;71.07;99950.78;1088206;54;19950;-80
2022/05/22 04:48:18;;;;;;;;;;;;;;;13.84;71.01;99946.25;1088502;54;19946;-80
2022/05/22 04:49:21;;;;;;;;;;;;;;;13.85;70.70;99947.94;1089521;46;19998;-80
2022/05/22 04:50:23;;;;;;;;;;;;;;;13.77;70.78;99952.47;1088600;54;19934;-80
2022/05/22 04:51:27;;;;;;;;;;;;;;;13.80;70.83;99952.97;1088660;54;19949;-80
2022/05/22 04:52:28;;;;;;;;;;;;;;;13.81;71.14;99945.75;1088468;54;20568;-78
2022/05/22 04:53:33;;;;;;;;;;;;;;;13.81;70.78;99943.91;1088434;54;19943;-79
2022/05/22 04:54:34;;;;;;;;;;;;;;;13.85;70.89;99947.94;1088376;54;19934;-79
2022/05/22 04:55:39;;;;;;;;;;;;;;;13.86;70.24;99949.63;1088374;54;19938;-80
2022/05/22 04:56:43;;;;;;;;;;;;;;;13.86;70.55;99941.56;1088296;54;19943;-81
2022/05/22 04:57:44;;;;;;;;;;;;;;;13.89;70.17;99943.06;1088461;54;19954;-80
2022/05/22 04:58:51;;;;;;;;;;;;;;;13.89;70.15;99941.22;1088551;54;19943;-79
2022/05/22 04:59:52;;;;;;;;;;;;;;;13.93;70.15;99939.06;1088589;54;19958;-80
2022/05/22 05:01:07;;;;;;;;;;;;;;;13.95;69.88;99936.19;1088590;54;19927;-81
2022/05/22 05:02:08;;;;;;;;;;;;;;;13.99;70.21;99937.50;1088378;54;19978;-80
2022/05/22 05:03:12;;;;;;;;;;;;;;;13.93;70.34;99933.69;1088317;54;19950;-79
2022/05/22 05:04:16;;;;;;;;;;;;;;;13.97;70.23;99934.16;1088242;54;20456;-80
2022/05/22 05:05:17;;;;;;;;;;;;;;;13.95;70.03;99930.81;1090168;46;19942;-79
2022/05/22 05:06:21;;;;;;;;;;;;;;;13.96;69.95;99927.94;1088434;54;19939;-79
2022/05/22 05:07:26;;;;;;;;;;;;;;;13.91;70.11;99933.00;1088670;54;20417;-80
2022/05/22 05:08:30;;;;;;;;;;;;;;;13.85;70.28;99929.13;1088641;54;19958;-81
2022/05/22 05:09:31;;;;;;;;;;;;;;;13.84;70.23;99940.88;1088494;54;19942;-81
2022/05/22 05:10:36;;;;;;;;;;;;;;;13.85;70.26;99926.44;1088644;54;20397;-79
2022/05/22 05:11:37;;;;;;;;;;;;;;;13.85;69.99;99931.81;1088516;54;19946;-80
2022/05/22 05:12:42;;;;;;;;;;;;;;;13.77;70.42;99925.59;1088531;54;19955;-81
2022/05/22 05:13:43;;;;;;;;;;;;;;;13.78;70.45;99924.59;1088368;54;19953;-78
2022/05/22 05:14:49;;;;;;;;;;;;;;;13.78;70.33;99935.34;1088714;39;20798;-80
2022/05/22 05:15:58;;;;;;;;;;;;;;;13.74;70.67;99934.84;1088464;54;19957;-79
2022/05/22 05:17:01;;;;;;;;;;;;;;;13.82;70.48;99932.16;1087777;54;19938;-79
2022/05/22 05:18:02;;;;;;;;;;;;;;;13.91;70.15;99940.19;1087871;54;19938;-79
2022/05/22 05:19:07;;;;;;;;;;;;;;;13.96;69.90;99932.50;1087501;54;19947;-79
2022/05/22 05:20:08;;;;;;;;;;;;;;;13.92;70.46;99931.13;1089235;46;19955;-79
2022/05/22 05:21:13;;;;;;;;;;;;;;;13.97;70.22;99934.16;1087924;54;19954;-79
2022/05/22 05:22:15;;;;;;;;;;;;;;;13.99;70.04;99932.13;1087170;54;19939;-79
2022/05/22 05:23:19;;;;;;;;;;;;;;;14.01;69.92;99925.59;1088000;54;20516;-79
2022/05/22 05:24:23;;;;;;;;;;;;;;;13.96;70.16;99919.88;1088527;54;19935;-80
2022/05/22 05:25:24;;;;;;;;;;;;;;;14.04;69.84;99916.34;1088512;54;20499;-80
2022/05/22 05:26:28;;;;;;;;;;;;;;;14.01;69.83;99925.59;1088506;54;19947;-81
2022/05/22 05:27:29;;;;;;;;;;;;;;;14.07;69.70;99924.09;1088630;54;19950;-81
2022/05/22 05:28:34;;;;;;;;;;;;;;;14.09;69.61;99922.03;1088455;54;19986;-80
2022/05/22 05:29:35;;;;;;;;;;;;;;;14.18;69.53;99920.19;1088369;54;19926;-78
2022/05/22 05:30:43;;;;;;;;;;;;;;;14.21;69.32;99922.53;1088394;54;19943;-79
2022/05/22 05:31:44;;;;;;;;;;;;;;;14.29;69.15;99927.03;1088529;54;19942;-78
2022/05/22 05:32:49;;;;;;;;;;;;;;;14.29;69.04;99927.91;1088448;54;20018;-80
2022/05/22 05:33:53;;;;;;;;;;;;;;;14.34;68.74;99928.19;1088408;54;19950;-80
2022/05/22 05:34:55;;;;;;;;;;;;;;;14.42;68.45;99929.19;1088557;54;19950;-79
2022/05/22 05:35:59;;;;;;;;;;;;;;;14.45;68.70;99923.47;1087501;54;20893;-80
2022/05/22 05:37:03;;;;;;;;;;;;;;;14.49;68.29;99927.50;1091076;46;19973;-79
2022/05/22 05:38:05;;;;;;;;;;;;;;;14.55;68.46;99925.97;1090771;46;19951;-80
2022/05/22 05:39:10;;;;;;;;;;;;;;;14.56;68.32;99931.16;1088518;54;19956;-79
2022/05/22 05:40:11;;;;;;;;;;;;;;;14.53;67.66;99925.31;1090078;46;19930;-79
2022/05/22 05:41:15;;;;;;;;;;;;;;;14.56;67.91;99922.25;1088599;54;19943;-80
2022/05/22 05:42:16;;;;;;;;;;;;;;;14.53;68.04;99909.16;1087881;54;19942;-79
2022/05/22 05:43:27;;;;;;;;;;;;;;;14.59;68.03;99911.16;1088249;54;19944;-81
2022/05/22 05:44:28;;;;;;;;;;;;;;;14.57;67.73;99913.16;1088169;54;19943;-80
2022/05/22 05:45:35;;;;;;;;;;;;;;;14.57;67.79;99910.47;1088092;54;19943;-79
2022/05/22 05:46:39;;;;;;;;;;;;;;;14.59;67.90;99906.63;1088241;54;19970;-81
2022/05/22 05:47:47;;;;;;;;;;;;;;;14.65;67.73;99910.44;1088308;54;19943;-81
2022/05/22 05:48:48;;;;;;;;;;;;;;;14.66;67.15;99899.56;1088339;54;20006;-81
2022/05/22 05:49:52;;;;;;;;;;;;;;;14.72;67.22;99910.63;1088425;54;19927;-80
2022/05/22 05:50:57;;;;;;;;;;;;;;;14.78;67.17;99907.25;1088549;54;19942;-81
2022/05/22 05:52:01;;;;;;;;;;;;;;;14.72;67.03;99902.53;1088417;54;19943;-81
2022/05/22 05:53:07;;;;;;;;;;;;;;;14.75;66.85;99902.19;1088072;54;19954;-78
2022/05/22 05:54:08;;;;;;;;;;;;;;;14.81;66.71;99901.50;1089787;39;20704;-79
2022/05/22 05:55:12;;;;;;;;;;;;;;;14.78;66.81;99897.31;1088616;54;19934;-80
2022/05/22 05:56:14;;;;;;;;;;;;;;;14.87;66.96;99897.25;1088650;54;19927;-80
2022/05/22 05:57:21;;;;;;;;;;;;;;;14.86;66.99;99904.50;1088550;54;19950;-80
2022/05/22 05:58:25;;;;;;;;;;;;;;;14.96;66.49;99896.19;1088589;54;19927;-81
2022/05/22 05:59:32;;;;;;;;;;;;;;;14.93;66.56;99896.53;1088362;54;19939;-82
2022/05/22 06:06:25;;;;;;;;;;;;;;;14.92;66.79;99902.97;1086696;39;20482;-78
2022/05/22 06:09:49;;;;;;;;;;;;;;;15.02;66.54;99894.66;1086729;54;19939;-82
2022/05/22 06:10:53;;;;;;;;;;;;;;;15.07;66.36;99897.63;1088283;54;19966;-81
2022/05/22 06:12:14;;;;;;;;;;;;;;;15.07;65.96;99893.09;1087021;54;20070;-80
2022/05/22 06:13:18;;;;;;;;;;;;;;;15.18;66.08;99886.47;1085490;54;19957;-78
2022/05/22 06:14:20;;;;;;;;;;;;;;;15.18;65.61;99893.72;1085442;54;19953;-81
2022/05/22 06:15:25;;;;;;;;;;;;;;;15.25;65.60;99890.13;1088601;39;20379;-79
2022/05/22 06:16:27;;;;;;;;;;;;;;;15.25;65.35;99900.91;1087405;46;19954;-79
2022/05/22 06:17:31;;;;;;;;;;;;;;;15.13;65.76;99891.56;1086595;54;19974;-82
2022/05/22 06:18:32;;;;;;;;;;;;;;;15.28;65.38;99889.75;1090635;39;20365;-81
2022/05/22 06:20:54;;;;;;;;;;;;;;;15.39;65.17;99896.59;1087711;39;20341;-77
2022/05/22 06:21:57;;;;;;;;;;;;;;;15.48;64.92;99893.84;1087860;54;19938;-78
2022/05/22 06:23:03;;;;;;;;;;;;;;;15.51;65.04;99896.16;1087871;54;19943;-79
2022/05/22 06:24:05;;;;;;;;;;;;;;;15.56;64.82;99888.38;1087893;54;19942;-78
2022/05/22 06:25:11;;;;;;;;;;;;;;;15.49;64.48;99898.22;1088088;54;19950;-79
2022/05/22 06:26:18;;;;;;;;;;;;;;;15.61;64.75;99899.44;1088432;54;19927;-80
2022/05/22 06:30:48;;;;;;;;;;;;;;;15.83;64.09;99907.69;1087705;54;19946;-79
2022/05/22 06:32:10;;;;;;;;;;;;;;;15.90;64.05;99903.25;1087970;47;19973;-80
2022/05/22 06:35:06;;;;;;;;;;;;;;;16.02;63.70;99900.94;1087899;54;19935;-80
2022/05/22 07:36:21;;;;;;;;;;;;;;;19.80;51.80;99844.81;1085260;54;19942;-84
2022/05/22 07:37:28;;;;;;;;;;;;;;;19.85;51.52;99841.47;1087806;54;19949;-86
2022/05/22 07:38:29;;;;;;;;;;;;;;;20.03;51.79;99841.69;1087805;54;19943;-84
2022/05/22 07:39:33;;;;;;;;;;;;;;;20.15;51.05;99838.31;1087810;54;19942;-82
2022/05/22 07:40:35;;;;;;;;;;;;;;;20.11;50.37;99837.91;1087709;54;20928;-84
2022/05/22 07:41:41;;;;;;;;;;;;;;;20.14;51.01;99837.50;1087795;54;19950;-84
2022/05/22 07:42:45;;;;;;;;;;;;;;;20.14;50.46;99831.22;1087778;54;19950;-83
2022/05/22 07:43:49;;;;;;;;;;;;;;;20.30;50.40;99825.34;1090509;39;20720;-84
2022/05/22 07:44:53;;;;;;;;;;;;;;;20.34;50.11;99832.00;1088128;54;19950;-85
2022/05/22 07:45:54;;;;;;;;;;;;;;;20.45;50.30;99833.19;1088259;46;19958;-86
2022/05/22 07:48:01;;;;;;;;;;;;;;;20.87;49.42;99830.13;1088014;54;19951;-84
2022/05/22 07:50:21;;;;;;;;;;;;;;;21.10;48.14;99817.84;1088226;54;19931;-84
2022/05/22 07:51:22;;;;;;;;;;;;;;;21.12;48.16;99826.63;1088368;54;19927;-83
2022/05/22 07:53:32;;;;;;;;;;;;;;;21.23;47.73;99827.78;1088650;54;19923;-82
2022/05/22 07:56:46;;;;;;;;;;;;;;;21.00;47.06;99826.50;1078055;54;20443;-83
2022/05/22 07:57:51;;;;;;;;;;;;;;;21.13;47.69;99820.13;1078840;54;19993;31
2022/05/22 08:11:28;;;;;;;;;;;;;;;22.18;44.88;99793.22;1088547;54;19942;-84
2022/05/22 08:12:29;;;;;;;;;;;;;;;22.32;44.09;99802.06;1088444;54;19954;-77
2022/05/22 08:13:33;;;;;;;;;;;;;;;22.43;44.05;99798.59;1090410;39;20680;-79
2022/05/22 08:15:41;;;;;;;;;;;;;;;22.48;43.40;99806.09;1088479;54;19943;-79
2022/05/22 08:16:42;;;;;;;;;;;;;;;22.63;43.24;99794.78;1088642;54;19962;-77
2022/05/22 08:17:46;;;;;;;;;;;;;;;22.66;42.77;99797.88;1088576;54;19950;-77
2022/05/22 08:18:47;;;;;;;;;;;;;;;22.75;42.24;99799.22;1088553;54;19949;-79
2022/05/22 08:19:51;;;;;;;;;;;;;;;22.85;42.41;99795.09;1088507;54;19923;-79
2022/05/22 08:20:53;;;;;;;;;;;;;;;23.02;42.21;99790.66;1089591;46;19938;-79
2022/05/22 08:21:58;;;;;;;;;;;;;;;23.23;41.89;99787.66;1088452;54;19927;-78
2022/05/22 08:23:00;;;;;;;;;;;;;;;23.38;40.55;99788.00;1088451;54;19927;-76
2022/05/22 08:24:03;;;;;;;;;;;;;;;23.55;41.09;99776.41;1088408;54;19933;-76
2022/05/22 08:25:06;;;;;;;;;;;;;;;23.61;41.28;99780.91;1088128;54;19927;-77
2022/05/22 08:26:09;;;;;;;;;;;;;;;23.55;40.64;99770.94;1088039;54;20980;-77
2022/05/22 08:27:13;;;;;;;;;;;;;;;23.73;41.01;99770.81;1087987;54;19943;-79
2022/05/22 08:30:21;;;;;;;;;;;;;;;23.61;39.49;99775.47;1088288;54;19942;-79
2022/05/22 08:31:25;;;;;;;;;;;;;;;23.11;39.87;99772.06;1088052;54;20642;-76
2022/05/22 08:32:27;;;;;;;;;;;;;;;23.16;39.98;99772.19;1088045;54;19950;-76
2022/05/22 08:33:30;;;;;;;;;;;;;;;23.09;40.18;99767.94;1088285;54;19949;-76
2022/05/22 08:34:32;;;;;;;;;;;;;;;23.06;40.15;99769.19;1088440;54;19949;-76
2022/05/22 08:43:05;;;;;;;;;;;;;;;23.75;39.51;99744.13;1088325;54;19974;-76
2022/05/22 08:54:43;;;;;;;;;;;;;;;24.80;36.82;99731.47;1088170;54;19974;-75
2022/05/22 09:00:50;;;;;;;;;;;;;;;23.97;36.54;99725.25;1088093;54;19946;-86
2022/05/22 13:37:02;;;;;;;;;;;;;;;25.68;27.69;99418.94;1087575;54;19930;-80
2022/05/22 13:41:18;;;;;;;;;;;;;;;25.50;27.03;99406.47;1087849;54;19939;-86
2022/05/22 13:42:40;;;;;;;;;;;;;;;25.56;27.54;99415.53;1088033;54;19954;-82
2022/05/22 13:45:03;;;;;;;;;;;;;;;25.61;27.48;99410.94;1088202;54;19933;-84
2022/05/22 13:47:27;;;;;;;;;;;;;;;25.58;26.67;99411.47;1089866;39;20948;-85
2022/05/22 13:48:38;;;;;;;;;;;;;;;25.56;27.05;99408.16;1087718;54;20644;-82
2022/05/22 13:53:25;;;;;;;;;;;;;;;25.25;27.09;99404.28;1088636;54;19926;-86
2022/05/22 13:54:48;;;;;;;;;;;;;;;25.32;27.35;99402.16;1088434;54;19943;-83
2022/05/22 13:55:53;;;;;;;;;;;;;;;25.44;27.21;99412.97;1088460;54;20029;-80
2022/05/22 13:56:56;;;;;;;;;;;;;;;25.57;27.44;99406.25;1088573;54;19966;-82
2022/05/22 13:58:01;;;;;;;;;;;;;;;25.58;27.15;99407.91;1090439;39;20962;-83
2022/05/22 14:00:13;;;;;;;;;;;;;;;25.36;26.61;99400.56;1088102;54;19946;-83